createdAt,value
2017-08-19T00:00:50.828Z,64.2
2017-08-19T00:01:53.341Z,64.3
2017-08-19T00:02:56.228Z,64.2
2017-08-19T00:03:58.741Z,64.3
2017-08-19T00:05:01.935Z,64.3
2017-08-19T00:06:04.451Z,64.3
2017-08-19T00:07:06.971Z,64.3
2017-08-19T00:08:10.169Z,64.4
2017-08-19T00:09:13.345Z,64.4
2017-08-19T00:10:16.189Z,64.4
2017-08-19T00:11:19.373Z,64.4
2017-08-19T00:12:21.906Z,64.5
2017-08-19T00:13:24.430Z,64.5
2017-08-19T00:14:27.276Z,64.4
2017-08-19T00:15:30.127Z,64.4
2017-08-19T00:16:32.999Z,64.5
2017-08-19T00:17:35.510Z,64.4
2017-08-19T00:18:38.033Z,64.4
2017-08-19T00:19:40.526Z,64.5
2017-08-19T00:20:43.042Z,64.4
2017-08-19T00:21:45.572Z,64.6
2017-08-19T00:22:48.779Z,64.6
2017-08-19T00:23:51.281Z,64.5
2017-08-19T00:24:54.485Z,64.5
2017-08-19T00:25:57.317Z,64.6
2017-08-19T00:26:59.850Z,64.7
2017-08-19T00:28:03.387Z,64.6
2017-08-19T00:29:05.892Z,64.7
2017-08-19T00:30:08.400Z,64.7
2017-08-19T00:31:11.249Z,64.7
2017-08-19T00:32:13.767Z,64.7
2017-08-19T00:33:16.621Z,64.7
2017-08-19T00:34:19.781Z,64.7
2017-08-19T00:35:22.654Z,64.7
2017-08-19T00:36:25.852Z,64.7
2017-08-19T00:37:28.693Z,64.7
2017-08-19T00:38:31.203Z,64.8
2017-08-19T00:39:34.044Z,64.7
2017-08-19T00:40:36.559Z,64.8
2017-08-19T00:41:39.088Z,64.8
2017-08-19T00:42:41.606Z,64.7
2017-08-19T00:43:44.810Z,64.7
2017-08-19T00:44:47.336Z,64.6
2017-08-19T00:45:50.176Z,64.7
2017-08-19T00:46:52.686Z,64.9
2017-08-19T00:47:55.207Z,64.9
2017-08-19T00:48:58.400Z,65.1
2017-08-19T00:50:01.242Z,65.1
2017-08-19T00:51:03.742Z,65
2017-08-19T00:52:06.247Z,65.1
2017-08-19T00:53:08.764Z,64.9
2017-08-19T00:54:11.279Z,64.9
2017-08-19T00:55:14.147Z,64.9
2017-08-19T00:56:17.344Z,64.8
2017-08-19T00:57:19.859Z,65
2017-08-19T00:58:22.362Z,64.9
2017-08-19T00:59:24.886Z,64.9
2017-08-19T01:00:27.385Z,65
2017-08-19T01:01:30.253Z,65.2
2017-08-19T01:02:32.764Z,65.2
2017-08-19T01:03:35.272Z,65.1
2017-08-19T01:04:37.798Z,65.1
2017-08-19T01:05:40.302Z,65.1
2017-08-19T01:06:42.838Z,65.1
2017-08-19T01:07:45.342Z,65.2
2017-08-19T01:08:47.844Z,65
2017-08-19T01:09:50.362Z,65
2017-08-19T01:10:53.222Z,65.1
2017-08-19T01:11:55.742Z,65.1
2017-08-19T01:12:58.579Z,65.1
2017-08-19T01:14:01.083Z,65
2017-08-19T01:15:03.937Z,65
2017-08-19T01:16:06.454Z,65.1
2017-08-19T01:17:08.945Z,65.1
2017-08-19T01:18:11.801Z,65
2017-08-19T01:19:15.349Z,65
2017-08-19T01:20:17.862Z,65
2017-08-19T01:21:20.370Z,65.1
2017-08-19T01:22:22.870Z,65.1
2017-08-19T01:23:25.731Z,65.2
2017-08-19T01:24:28.612Z,65.2
2017-08-19T01:25:31.462Z,65.2
2017-08-19T01:26:34.314Z,65.2
2017-08-19T01:27:36.812Z,65.1
2017-08-19T01:28:40.004Z,65
2017-08-19T01:29:42.864Z,65
2017-08-19T01:30:45.370Z,65
2017-08-19T01:31:48.200Z,65.1
2017-08-19T01:32:50.719Z,65.1
2017-08-19T01:33:53.907Z,65.2
2017-08-19T01:34:56.747Z,65.1
2017-08-19T01:35:59.252Z,65.1
2017-08-19T01:37:02.463Z,65.1
2017-08-19T01:38:04.978Z,65.2
2017-08-19T01:39:07.487Z,65.2
2017-08-19T01:40:10.349Z,65.2
2017-08-19T01:41:12.860Z,65.2
2017-08-19T01:42:16.051Z,65.2
2017-08-19T01:43:18.879Z,65.2
2017-08-19T01:44:21.400Z,65.1
2017-08-19T01:45:23.899Z,65.1
2017-08-19T01:46:26.452Z,65.1
2017-08-19T01:47:29.304Z,65.1
2017-08-19T01:48:31.807Z,65.1
2017-08-19T01:49:34.316Z,65.2
2017-08-19T01:50:37.199Z,65.2
2017-08-19T01:51:40.045Z,65.2
2017-08-19T01:52:42.912Z,65.3
2017-08-19T01:53:46.125Z,65.2
2017-08-19T01:54:48.968Z,65.2
2017-08-19T01:55:51.480Z,65.2
2017-08-19T01:56:54.337Z,65.1
2017-08-19T01:57:56.835Z,65.2
2017-08-19T01:58:59.359Z,65.1
2017-08-19T02:00:02.184Z,64.9
2017-08-19T02:01:05.035Z,64.9
2017-08-19T02:02:07.548Z,64.8
2017-08-19T02:03:10.054Z,64.8
2017-08-19T02:04:12.556Z,64.8
2017-08-19T02:05:15.080Z,64.8
2017-08-19T02:06:18.612Z,64.9
2017-08-19T02:07:21.469Z,64.9
2017-08-19T02:08:23.973Z,65
2017-08-19T02:09:26.480Z,65
2017-08-19T02:10:28.989Z,65
2017-08-19T02:11:31.836Z,65
2017-08-19T02:12:35.050Z,64.8
2017-08-19T02:13:37.561Z,64.9
2017-08-19T02:14:40.784Z,64.9
2017-08-19T02:15:43.644Z,65.1
2017-08-19T02:16:46.132Z,65
2017-08-19T02:17:48.984Z,65
2017-08-19T02:18:52.517Z,65
2017-08-19T02:19:55.384Z,65.1
2017-08-19T02:20:58.581Z,65.1
2017-08-19T02:22:01.766Z,65.1
2017-08-19T02:23:04.257Z,65.1
2017-08-19T02:24:07.112Z,65.1
2017-08-19T02:25:09.962Z,65.2
2017-08-19T02:26:12.466Z,65.2
2017-08-19T02:27:14.978Z,65.2
2017-08-19T02:28:17.496Z,65.1
2017-08-19T02:29:20.678Z,65
2017-08-19T02:30:23.532Z,65
2017-08-19T02:31:26.377Z,65.2
2017-08-19T02:32:28.891Z,65.2
2017-08-19T02:33:31.754Z,65.2
2017-08-19T02:34:34.944Z,65.3
2017-08-19T02:35:37.458Z,65.3
2017-08-19T02:36:39.977Z,65.3
2017-08-19T02:37:42.477Z,65.4
2017-08-19T02:38:45.662Z,65.3
2017-08-19T02:39:48.859Z,65.3
2017-08-19T02:40:52.070Z,65.3
2017-08-19T02:41:54.935Z,65.3
2017-08-19T02:42:57.442Z,65.2
2017-08-19T02:43:59.959Z,65.2
2017-08-19T02:45:03.167Z,65.2
2017-08-19T02:46:05.679Z,65.1
2017-08-19T02:47:08.203Z,65.2
2017-08-19T02:48:11.038Z,65.1
2017-08-19T02:49:13.897Z,65.2
2017-08-19T02:50:16.753Z,65.2
2017-08-19T02:51:19.930Z,65.2
2017-08-19T02:52:22.793Z,65.2
2017-08-19T02:53:26.675Z,65.2
2017-08-19T02:54:29.525Z,65.3
2017-08-19T02:55:32.390Z,65.2
2017-08-19T02:56:34.897Z,65.2
2017-08-19T02:57:37.384Z,65.3
2017-08-19T02:58:40.590Z,65.3
2017-08-19T02:59:43.092Z,65.2
2017-08-19T03:00:46.283Z,65.2
2017-08-19T03:01:49.459Z,65.2
2017-08-19T03:02:52.302Z,65.2
2017-08-19T03:03:55.148Z,65.2
2017-08-19T03:04:57.672Z,65.2
2017-08-19T03:06:00.513Z,65.2
2017-08-19T03:07:03.017Z,65.3
2017-08-19T03:08:05.915Z,65.2
2017-08-19T03:09:08.775Z,65.2
2017-08-19T03:10:11.613Z,65.2
2017-08-19T03:11:14.470Z,65.2
2017-08-19T03:12:16.997Z,65.4
2017-08-19T03:13:20.183Z,65.4
2017-08-19T03:14:23.025Z,65.6
2017-08-19T03:15:25.545Z,65.5
2017-08-19T03:16:28.375Z,65.5
2017-08-19T03:17:31.195Z,65.5
2017-08-19T03:18:34.042Z,65.5
2017-08-19T03:19:36.553Z,65.4
2017-08-19T03:20:39.403Z,65.3
2017-08-19T03:21:41.915Z,65.5
2017-08-19T03:22:44.415Z,65.5
2017-08-19T03:23:46.935Z,65.4
2017-08-19T03:24:49.440Z,65.4
2017-08-19T03:25:51.943Z,65.4
2017-08-19T03:26:54.455Z,65.5
2017-08-19T03:27:56.980Z,65.5
2017-08-19T03:28:59.497Z,65.4
2017-08-19T03:30:02.357Z,65.4
2017-08-19T03:31:05.932Z,65.4
2017-08-19T03:32:08.786Z,65.4
2017-08-19T03:33:11.645Z,65.5
2017-08-19T03:34:14.840Z,65.6
2017-08-19T03:35:17.332Z,65.6
2017-08-19T03:36:19.847Z,65.6
2017-08-19T03:37:22.349Z,65.7
2017-08-19T03:38:25.176Z,65.6
2017-08-19T03:39:27.678Z,65.8
2017-08-19T03:40:30.190Z,65.8
2017-08-19T03:41:33.025Z,65.8
2017-08-19T03:42:35.528Z,65.8
2017-08-19T03:43:38.054Z,65.8
2017-08-19T03:44:40.557Z,65.7
2017-08-19T03:45:43.073Z,65.7
2017-08-19T03:46:45.580Z,65.7
2017-08-19T03:47:48.068Z,65.7
2017-08-19T03:48:50.581Z,65.8
2017-08-19T03:49:53.448Z,65.8
2017-08-19T03:50:56.301Z,65.8
2017-08-19T03:51:59.141Z,65.8
2017-08-19T03:53:02.340Z,65.8
2017-08-19T03:54:05.523Z,65.8
2017-08-19T03:55:08.371Z,65.8
2017-08-19T03:56:10.877Z,65.9
2017-08-19T03:57:13.378Z,65.9
2017-08-19T03:58:16.236Z,65.9
2017-08-19T03:59:18.762Z,65.9
2017-08-19T04:00:21.263Z,65.9
2017-08-19T04:01:23.770Z,66
2017-08-19T04:02:26.646Z,66
2017-08-19T04:03:29.493Z,66.1
2017-08-19T04:04:32.359Z,66.1
2017-08-19T04:05:35.539Z,66.2
2017-08-19T04:06:38.383Z,66.2
2017-08-19T04:07:40.889Z,66.1
2017-08-19T04:08:43.731Z,66.1
2017-08-19T04:09:46.245Z,66.2
2017-08-19T04:10:48.748Z,66.3
2017-08-19T04:11:51.611Z,66.2
2017-08-19T04:12:54.794Z,66.4
2017-08-19T04:13:57.637Z,66.2
2017-08-19T04:15:00.146Z,66.2
2017-08-19T04:16:03.337Z,66
2017-08-19T04:17:06.186Z,66
2017-08-19T04:18:08.689Z,66.1
2017-08-19T04:19:11.510Z,66.1
2017-08-19T04:20:14.382Z,65.9
2017-08-19T04:21:17.202Z,65.9
2017-08-19T04:22:19.710Z,65.9
2017-08-19T04:23:23.932Z,66
2017-08-19T04:24:26.434Z,66.1
2017-08-19T04:25:28.941Z,66.1
2017-08-19T04:26:31.451Z,66.1
2017-08-19T04:27:34.643Z,66.2
2017-08-19T04:28:37.496Z,66.2
2017-08-19T04:29:40.018Z,66.1
2017-08-19T04:30:43.197Z,66.1
2017-08-19T04:31:46.049Z,66
2017-08-19T04:32:48.544Z,66
2017-08-19T04:33:51.057Z,65.9
2017-08-19T04:34:53.568Z,65.8
2017-08-19T04:35:56.086Z,65.8
2017-08-19T04:36:58.601Z,65.8
2017-08-19T04:38:01.128Z,66
2017-08-19T04:39:03.974Z,65.9
2017-08-19T04:40:06.475Z,65.8
2017-08-19T04:41:08.976Z,66
2017-08-19T04:42:11.484Z,65.9
2017-08-19T04:43:13.998Z,65.9
2017-08-19T04:44:16.518Z,66
2017-08-19T04:45:19.045Z,66
2017-08-19T04:46:21.892Z,65.9
2017-08-19T04:47:24.403Z,66
2017-08-19T04:48:26.925Z,65.9
2017-08-19T04:49:29.427Z,66
2017-08-19T04:50:31.940Z,66.1
2017-08-19T04:51:34.447Z,66.1
2017-08-19T04:52:36.968Z,66
2017-08-19T04:53:39.485Z,66.1
2017-08-19T04:54:42.347Z,66
2017-08-19T04:55:44.860Z,66
2017-08-19T04:56:47.385Z,65.9
2017-08-19T04:57:50.554Z,66
2017-08-19T04:58:53.405Z,65.9
2017-08-19T04:59:55.912Z,65.9
2017-08-19T05:00:58.755Z,65.9
2017-08-19T05:02:01.606Z,65.8
2017-08-19T05:03:04.801Z,65.9
2017-08-19T05:04:07.962Z,65.9
2017-08-19T05:05:10.812Z,66
2017-08-19T05:06:13.312Z,66
2017-08-19T05:07:15.813Z,65.9
2017-08-19T05:08:18.659Z,65.9
2017-08-19T05:09:21.528Z,65.9
2017-08-19T05:10:24.379Z,66
2017-08-19T05:11:27.896Z,66
2017-08-19T05:12:30.757Z,65.9
2017-08-19T05:13:33.260Z,65.9
2017-08-19T05:14:36.111Z,65.9
2017-08-19T05:15:38.630Z,65.9
2017-08-19T05:16:41.122Z,65.9
2017-08-19T05:17:43.967Z,65.9
2017-08-19T05:18:46.491Z,65.9
2017-08-19T05:19:48.986Z,65.9
2017-08-19T05:20:52.210Z,65.9
2017-08-19T05:21:55.387Z,65.9
2017-08-19T05:22:57.893Z,65.8
2017-08-19T05:24:00.764Z,65.9
2017-08-19T05:25:03.312Z,65.8
2017-08-19T05:26:05.822Z,65.8
2017-08-19T05:27:08.345Z,65.8
2017-08-19T05:28:10.839Z,65.9
2017-08-19T05:29:14.040Z,65.9
2017-08-19T05:30:17.559Z,65.9
2017-08-19T05:31:20.404Z,65.8
2017-08-19T05:32:23.263Z,65.8
2017-08-19T05:33:25.765Z,65.8
2017-08-19T05:34:28.621Z,65.8
2017-08-19T05:35:31.138Z,65.9
2017-08-19T05:36:34.669Z,65.9
2017-08-19T05:37:37.545Z,65.9
2017-08-19T05:38:40.384Z,65.9
2017-08-19T05:39:42.901Z,65.9
2017-08-19T05:40:46.104Z,65.9
2017-08-19T05:41:48.641Z,65.8
2017-08-19T05:42:51.158Z,65.8
2017-08-19T05:43:54.348Z,65.8
2017-08-19T05:44:56.874Z,65.8
2017-08-19T05:45:59.390Z,65.9
2017-08-19T05:47:02.248Z,65.8
2017-08-19T05:48:05.087Z,65.7
2017-08-19T05:49:07.948Z,65.8
2017-08-19T05:50:11.127Z,65.8
2017-08-19T05:51:13.636Z,65.7
2017-08-19T05:52:16.486Z,65.8
2017-08-19T05:53:19.335Z,65.8
2017-08-19T05:54:21.843Z,65.7
2017-08-19T05:55:24.350Z,65.6
2017-08-19T05:56:27.568Z,65.6
2017-08-19T05:57:30.069Z,65.8
2017-08-19T05:58:32.577Z,65.9
2017-08-19T05:59:35.095Z,65.7
2017-08-19T06:00:37.955Z,65.6
2017-08-19T06:01:40.460Z,65.7
2017-08-19T06:02:42.978Z,65.8
2017-08-19T06:03:45.809Z,65.8
2017-08-19T06:04:48.330Z,65.8
2017-08-19T06:05:50.833Z,65.7
2017-08-19T06:06:54.009Z,65.6
2017-08-19T06:07:56.877Z,65.8
2017-08-19T06:08:59.398Z,65.8
2017-08-19T06:10:02.564Z,65.8
2017-08-19T06:11:05.753Z,65.8
2017-08-19T06:12:08.269Z,65.8
2017-08-19T06:13:10.789Z,65.8
2017-08-19T06:14:13.309Z,65.7
2017-08-19T06:15:15.816Z,65.8
2017-08-19T06:16:19.013Z,65.6
2017-08-19T06:17:21.865Z,65.6
2017-08-19T06:18:25.084Z,65.6
2017-08-19T06:19:27.599Z,65.5
2017-08-19T06:20:30.463Z,65.4
2017-08-19T06:21:32.970Z,65.3
2017-08-19T06:22:35.467Z,65.3
2017-08-19T06:23:38.312Z,65.3
2017-08-19T06:24:41.493Z,65.4
2017-08-19T06:25:45.009Z,65.4
2017-08-19T06:26:47.567Z,65.3
2017-08-19T06:27:50.382Z,65.6
2017-08-19T06:28:52.892Z,65.6
2017-08-19T06:29:55.403Z,65.4
2017-08-19T06:30:57.914Z,65.3
2017-08-19T06:32:00.429Z,65.3
2017-08-19T06:33:02.939Z,65.3
2017-08-19T06:34:05.471Z,65.3
2017-08-19T06:35:07.987Z,65.3
2017-08-19T06:36:10.490Z,65.4
2017-08-19T06:37:13.323Z,65.3
2017-08-19T06:38:16.555Z,65.2
2017-08-19T06:39:19.067Z,65.3
2017-08-19T06:40:21.909Z,65.4
2017-08-19T06:41:24.415Z,65.4
2017-08-19T06:42:26.911Z,65.5
2017-08-19T06:43:30.092Z,65.5
2017-08-19T06:44:32.955Z,65.5
2017-08-19T06:45:36.134Z,65.6
2017-08-19T06:46:38.984Z,65.6
2017-08-19T06:47:41.834Z,65.6
2017-08-19T06:48:44.681Z,65.6
2017-08-19T06:49:47.225Z,65.3
2017-08-19T06:50:50.080Z,65.2
2017-08-19T06:51:52.913Z,65.3
2017-08-19T06:52:55.438Z,65.2
2017-08-19T06:53:57.952Z,65.2
2017-08-19T06:55:00.455Z,65.2
2017-08-19T06:56:03.645Z,65.2
2017-08-19T06:57:06.154Z,65.1
2017-08-19T06:58:08.671Z,65.1
2017-08-19T06:59:11.216Z,65.1
2017-08-19T07:00:13.717Z,65.2
2017-08-19T07:01:16.218Z,65.2
2017-08-19T07:02:19.414Z,65.2
2017-08-19T07:03:21.931Z,65.1
2017-08-19T07:04:24.439Z,65.2
2017-08-19T07:05:27.328Z,65
2017-08-19T07:06:29.846Z,64.9
2017-08-19T07:07:33.065Z,65
2017-08-19T07:08:35.907Z,64.9
2017-08-19T07:09:38.429Z,64.9
2017-08-19T07:10:41.269Z,65
2017-08-19T07:11:44.122Z,65.1
2017-08-19T07:12:46.965Z,65
2017-08-19T07:13:49.473Z,65.1
2017-08-19T07:14:51.972Z,65
2017-08-19T07:15:55.160Z,65.1
2017-08-19T07:16:57.657Z,65
2017-08-19T07:18:00.161Z,65.1
2017-08-19T07:19:03.379Z,65
2017-08-19T07:20:06.228Z,65
2017-08-19T07:21:09.091Z,65.1
2017-08-19T07:22:12.275Z,65.2
2017-08-19T07:23:14.778Z,65.3
2017-08-19T07:24:17.978Z,65.2
2017-08-19T07:25:20.842Z,65.1
2017-08-19T07:26:23.358Z,65
2017-08-19T07:27:26.563Z,64.9
2017-08-19T07:28:29.405Z,64.9
2017-08-19T07:29:31.913Z,64.8
2017-08-19T07:30:34.764Z,64.7
2017-08-19T07:31:37.258Z,64.8
2017-08-19T07:32:39.797Z,64.9
2017-08-19T07:33:42.644Z,64.9
2017-08-19T07:34:45.497Z,64.8
2017-08-19T07:35:48.339Z,64.7
2017-08-19T07:36:51.519Z,64.8
2017-08-19T07:37:54.034Z,64.7
2017-08-19T07:38:56.551Z,64.7
2017-08-19T07:39:59.385Z,64.8
2017-08-19T07:41:02.228Z,64.7
2017-08-19T07:42:05.405Z,64.7
2017-08-19T07:43:08.259Z,64.5
2017-08-19T07:44:10.790Z,64.6
2017-08-19T07:45:13.307Z,64.6
2017-08-19T07:46:16.161Z,64.7
2017-08-19T07:47:18.681Z,64.7
2017-08-19T07:48:21.192Z,64.7
2017-08-19T07:49:23.701Z,64.8
2017-08-19T07:50:26.201Z,64.8
2017-08-19T07:51:28.716Z,64.8
2017-08-19T07:52:31.229Z,64.6
2017-08-19T07:53:33.736Z,64.6
2017-08-19T07:54:36.596Z,64.6
2017-08-19T07:55:39.116Z,64.5
2017-08-19T07:56:41.968Z,64.4
2017-08-19T07:57:45.228Z,64.2
2017-08-19T07:58:48.987Z,64.3
2017-08-19T07:59:51.840Z,64.5
2017-08-19T08:00:54.366Z,64.5
2017-08-19T08:01:56.888Z,64.5
2017-08-19T08:02:59.399Z,64.3
2017-08-19T08:04:02.265Z,64.1
2017-08-19T08:05:04.790Z,63.9
2017-08-19T08:06:07.990Z,63.9
2017-08-19T08:07:11.197Z,63.9
2017-08-19T08:08:14.033Z,64
2017-08-19T08:09:16.558Z,64
2017-08-19T08:10:19.424Z,63.7
2017-08-19T08:11:21.920Z,63.5
2017-08-19T08:12:24.792Z,63.5
2017-08-19T08:13:27.318Z,63.4
2017-08-19T08:14:29.829Z,63.5
2017-08-19T08:15:32.702Z,63.5
2017-08-19T08:16:35.212Z,63.5
2017-08-19T08:17:37.713Z,63.6
2017-08-19T08:18:40.578Z,63.9
2017-08-19T08:19:43.757Z,64
2017-08-19T08:20:46.277Z,63.8
2017-08-19T08:21:49.136Z,63.6
2017-08-19T08:22:52.671Z,63.5
2017-08-19T08:23:55.540Z,63.5
2017-08-19T08:24:58.065Z,63.5
2017-08-19T08:26:00.575Z,63.5
2017-08-19T08:27:03.451Z,63.6
2017-08-19T08:28:06.659Z,63.7
2017-08-19T08:29:09.496Z,63.6
2017-08-19T08:30:12.363Z,63.4
2017-08-19T08:31:14.874Z,63.2
2017-08-19T08:32:17.713Z,63.3
2017-08-19T08:33:20.232Z,63.3
2017-08-19T08:34:23.110Z,63.5
2017-08-19T08:35:25.991Z,63.5
2017-08-19T08:36:28.836Z,63.3
2017-08-19T08:37:31.714Z,63.2
2017-08-19T08:38:34.561Z,63
2017-08-19T08:39:37.084Z,62.9
2017-08-19T08:40:39.612Z,62.9
2017-08-19T08:41:42.136Z,62.6
2017-08-19T08:42:45.033Z,62.5
2017-08-19T08:43:47.538Z,62.5
2017-08-19T08:44:50.387Z,62.7
2017-08-19T08:45:53.253Z,62.6
2017-08-19T08:46:55.789Z,62.6
2017-08-19T08:47:58.294Z,62.6
2017-08-19T08:49:00.813Z,62.7
2017-08-19T08:50:03.701Z,62.7
2017-08-19T08:51:06.217Z,62.8
2017-08-19T08:52:09.082Z,62.8
2017-08-19T08:53:11.940Z,62.6
2017-08-19T08:54:14.471Z,62.5
2017-08-19T08:55:17.670Z,62.4
2017-08-19T08:56:20.198Z,62.5
2017-08-19T08:57:23.037Z,62.8
2017-08-19T08:58:25.562Z,62.7
2017-08-19T08:59:28.413Z,62.9
2017-08-19T09:00:31.259Z,63
2017-08-19T09:01:34.164Z,63.2
2017-08-19T09:02:37.012Z,63.2
2017-08-19T09:03:39.513Z,63.3
2017-08-19T09:04:42.033Z,63.3
2017-08-19T09:05:44.951Z,62.7
2017-08-19T09:06:47.463Z,62.7
2017-08-19T09:07:49.988Z,62.9
2017-08-19T09:08:52.518Z,62.9
2017-08-19T09:09:55.364Z,62.6
2017-08-19T09:10:58.257Z,62.4
2017-08-19T09:12:01.099Z,62
2017-08-19T09:13:04.297Z,61.6
2017-08-19T09:14:07.493Z,61.8
2017-08-19T09:15:10.384Z,62.3
2017-08-19T09:16:12.905Z,62.4
2017-08-19T09:17:15.429Z,62.1
2017-08-19T09:18:18.647Z,62.1
2017-08-19T09:19:21.172Z,62.1
2017-08-19T09:20:23.693Z,61.8
2017-08-19T09:21:26.563Z,61.7
2017-08-19T09:22:29.737Z,62
2017-08-19T09:23:32.262Z,62.4
2017-08-19T09:24:34.804Z,62.4
2017-08-19T09:25:37.305Z,62.1
2017-08-19T09:26:40.159Z,61.7
2017-08-19T09:27:43.023Z,61.6
2017-08-19T09:28:45.883Z,61.7
2017-08-19T09:29:48.407Z,61.4
2017-08-19T09:30:50.933Z,61.3
2017-08-19T09:31:53.436Z,61
2017-08-19T09:32:56.301Z,60.8
2017-08-19T09:33:59.179Z,60.9
2017-08-19T09:35:01.693Z,61.2
2017-08-19T09:36:04.550Z,61.3
2017-08-19T09:37:07.067Z,61.6
2017-08-19T09:38:09.615Z,61.4
2017-08-19T09:39:12.127Z,61.1
2017-08-19T09:40:14.984Z,60.9
2017-08-19T09:41:17.840Z,60.8
2017-08-19T09:42:20.358Z,60.9
2017-08-19T09:43:22.869Z,61.1
2017-08-19T09:44:25.376Z,62.1
2017-08-19T09:45:27.890Z,62.9
2017-08-19T09:46:30.443Z,63.4
2017-08-19T09:47:32.948Z,63.6
2017-08-19T09:48:35.830Z,63.8
2017-08-19T09:49:38.344Z,63.9
2017-08-19T09:50:40.854Z,64
2017-08-19T09:51:43.386Z,64.1
2017-08-19T09:52:45.904Z,64.1
2017-08-19T09:53:48.422Z,63.2
2017-08-19T09:54:50.959Z,61.8
2017-08-19T09:55:53.469Z,60.9
2017-08-19T09:56:56.676Z,60.4
2017-08-19T09:57:59.210Z,60
2017-08-19T09:59:01.745Z,60.8
2017-08-19T10:00:04.952Z,61.5
2017-08-19T10:01:07.824Z,62
2017-08-19T10:02:10.336Z,62.5
2017-08-19T10:03:13.174Z,62.7
2017-08-19T10:04:15.701Z,62.9
2017-08-19T10:05:18.222Z,63
2017-08-19T10:06:20.749Z,62.5
2017-08-19T10:07:23.583Z,61.5
2017-08-19T10:08:26.815Z,60.9
2017-08-19T10:09:29.690Z,60.2
2017-08-19T10:10:32.903Z,59.8
2017-08-19T10:11:35.417Z,59.4
2017-08-19T10:12:37.914Z,59.2
2017-08-19T10:13:40.771Z,59.7
2017-08-19T10:14:43.628Z,60.3
2017-08-19T10:15:46.830Z,61
2017-08-19T10:16:49.690Z,61.6
2017-08-19T10:17:52.882Z,62
2017-08-19T10:18:55.394Z,62.2
2017-08-19T10:19:58.602Z,62.3
2017-08-19T10:21:01.127Z,62.1
2017-08-19T10:22:03.632Z,62.2
2017-08-19T10:23:06.482Z,62.2
2017-08-19T10:24:09.005Z,62.1
2017-08-19T10:25:11.530Z,62
2017-08-19T10:26:14.056Z,62
2017-08-19T10:27:16.926Z,61.8
2017-08-19T10:28:19.784Z,61.7
2017-08-19T10:29:23.038Z,61.6
2017-08-19T10:30:26.218Z,61.4
2017-08-19T10:31:29.086Z,61.1
2017-08-19T10:32:31.597Z,60.9
2017-08-19T10:33:34.127Z,60.5
2017-08-19T10:34:36.658Z,60
2017-08-19T10:35:39.205Z,59.3
2017-08-19T10:36:41.698Z,59
2017-08-19T10:37:44.567Z,58
2017-08-19T10:38:47.453Z,57
2017-08-19T10:39:50.307Z,56.8
2017-08-19T10:40:52.832Z,56.7
2017-08-19T10:41:55.350Z,56.6
2017-08-19T10:42:57.866Z,56.4
2017-08-19T10:44:00.742Z,56.4
2017-08-19T10:45:04.292Z,56.2
2017-08-19T10:46:07.150Z,56.4
2017-08-19T10:47:10.024Z,56.8
2017-08-19T10:48:12.881Z,57
2017-08-19T10:49:15.399Z,56.8
2017-08-19T10:50:18.971Z,56.8
2017-08-19T10:51:22.159Z,56.9
2017-08-19T10:52:24.678Z,57.1
2017-08-19T10:53:27.553Z,57.2
2017-08-19T10:54:30.390Z,57.2
2017-08-19T10:55:32.936Z,57.2
2017-08-19T10:56:35.445Z,57.2
2017-08-19T10:57:37.967Z,57.2
2017-08-19T10:58:40.489Z,57.2
2017-08-19T10:59:43.005Z,57.5
2017-08-19T11:00:45.872Z,57.6
2017-08-19T11:01:48.396Z,57.9
2017-08-19T11:02:50.913Z,58.3
2017-08-19T11:03:53.433Z,58.9
2017-08-19T11:04:56.303Z,59.3
2017-08-19T11:05:58.831Z,59.6
2017-08-19T11:07:01.342Z,59.5
2017-08-19T11:08:04.202Z,59.5
2017-08-19T11:09:06.716Z,59.4
2017-08-19T11:10:09.273Z,59.2
2017-08-19T11:11:11.787Z,58.8
2017-08-19T11:12:14.298Z,58.8
2017-08-19T11:13:17.509Z,58.7
2017-08-19T11:14:20.032Z,58.4
2017-08-19T11:15:22.893Z,58.3
2017-08-19T11:16:25.407Z,58
2017-08-19T11:17:28.626Z,57.7
2017-08-19T11:18:31.157Z,56.8
2017-08-19T11:19:34.019Z,56.6
2017-08-19T11:20:36.529Z,56.6
2017-08-19T11:21:39.061Z,56.5
2017-08-19T11:22:41.572Z,56.4
2017-08-19T11:23:44.101Z,56.3
2017-08-19T11:24:46.622Z,56.2
2017-08-19T11:25:49.132Z,56.1
2017-08-19T11:26:51.665Z,56
2017-08-19T11:27:54.208Z,55.9
2017-08-19T11:28:56.702Z,55.8
2017-08-19T11:29:59.919Z,55.7
2017-08-19T11:31:03.123Z,55.7
2017-08-19T11:32:05.640Z,55.6
2017-08-19T11:33:08.513Z,55.6
2017-08-19T11:34:11.399Z,55.9
2017-08-19T11:35:14.618Z,56
2017-08-19T11:36:18.128Z,56.1
2017-08-19T11:37:20.646Z,56.3
2017-08-19T11:38:23.502Z,56.2
2017-08-19T11:39:26.023Z,56.2
2017-08-19T11:40:28.560Z,56.4
2017-08-19T11:41:31.780Z,56.3
2017-08-19T11:42:34.636Z,56.3
2017-08-19T11:43:37.500Z,56.4
2017-08-19T11:44:40.346Z,56.4
2017-08-19T11:45:42.865Z,56.4
2017-08-19T11:46:45.402Z,56.2
2017-08-19T11:47:48.243Z,56.3
2017-08-19T11:48:50.756Z,56.1
2017-08-19T11:49:53.291Z,56.3
2017-08-19T11:50:55.793Z,56.3
2017-08-19T11:51:58.335Z,56.3
2017-08-19T11:53:00.857Z,56.3
2017-08-19T11:54:03.703Z,56.3
2017-08-19T11:55:06.574Z,56.3
2017-08-19T11:56:09.090Z,56.6
2017-08-19T11:57:11.614Z,56.8
2017-08-19T11:58:14.141Z,56.7
2017-08-19T11:59:17.364Z,56.6
2017-08-19T12:00:19.885Z,56.5
2017-08-19T12:01:22.737Z,56.6
2017-08-19T12:02:25.605Z,56.4
2017-08-19T12:03:28.119Z,56.4
2017-08-19T12:04:30.631Z,56.4
2017-08-19T12:05:33.486Z,56.6
2017-08-19T12:06:36.010Z,56.6
2017-08-19T12:07:38.885Z,56.6
2017-08-19T12:08:41.413Z,57.1
2017-08-19T12:09:44.251Z,57.5
2017-08-19T12:10:46.772Z,57.6
2017-08-19T12:11:49.301Z,57.6
2017-08-19T12:12:52.163Z,57.9
2017-08-19T12:13:55.023Z,57.7
2017-08-19T12:14:57.533Z,57.4
2017-08-19T12:16:00.040Z,56.8
2017-08-19T12:17:02.904Z,56.6
2017-08-19T12:18:05.435Z,56.6
2017-08-19T12:19:08.275Z,56.7
2017-08-19T12:20:11.169Z,56.8
2017-08-19T12:21:13.681Z,56.8
2017-08-19T12:22:16.211Z,56.8
2017-08-19T12:23:19.417Z,56.5
2017-08-19T12:24:22.288Z,56.4
2017-08-19T12:25:25.139Z,56.2
2017-08-19T12:26:28.037Z,56.1
2017-08-19T12:27:30.558Z,56.2
2017-08-19T12:28:33.072Z,56.2
2017-08-19T12:29:35.589Z,56.2
2017-08-19T12:30:38.124Z,56.1
2017-08-19T12:31:40.657Z,56
2017-08-19T12:32:43.868Z,56.1
2017-08-19T12:33:46.394Z,56
2017-08-19T12:34:49.236Z,56
2017-08-19T12:35:52.438Z,56
2017-08-19T12:36:55.313Z,56
2017-08-19T12:37:58.176Z,56.2
2017-08-19T12:39:00.693Z,56.1
2017-08-19T12:40:03.559Z,56.1
2017-08-19T12:41:06.076Z,56.3
2017-08-19T12:42:08.946Z,56.4
2017-08-19T12:43:11.440Z,56.4
2017-08-19T12:44:13.950Z,56.4
2017-08-19T12:45:16.482Z,56.4
2017-08-19T12:46:19.005Z,56.5
2017-08-19T12:47:21.522Z,57.1
2017-08-19T12:48:24.374Z,57.1
2017-08-19T12:49:26.879Z,57.4
2017-08-19T12:50:29.749Z,57.5
2017-08-19T12:51:32.609Z,57.4
2017-08-19T12:52:35.109Z,57.2
2017-08-19T12:53:37.619Z,57.2
2017-08-19T12:54:40.132Z,57.1
2017-08-19T12:55:42.645Z,56.9
2017-08-19T12:56:45.173Z,56.9
2017-08-19T12:57:47.690Z,56.8
2017-08-19T12:58:50.547Z,56.6
2017-08-19T12:59:53.082Z,56.2
2017-08-19T13:00:55.924Z,56.1
2017-08-19T13:01:58.857Z,55.6
2017-08-19T13:03:01.379Z,55.6
2017-08-19T13:04:04.600Z,55.7
2017-08-19T13:05:07.111Z,55.8
2017-08-19T13:06:09.637Z,55.8
2017-08-19T13:07:12.836Z,55.9
2017-08-19T13:08:15.352Z,55.3
2017-08-19T13:09:17.923Z,55.2
2017-08-19T13:10:20.496Z,55
2017-08-19T13:11:23.687Z,54.6
2017-08-19T13:12:26.541Z,54.5
2017-08-19T13:13:29.396Z,54.2
2017-08-19T13:14:31.939Z,54.2
2017-08-19T13:15:34.473Z,54
2017-08-19T13:16:37.320Z,53.8
2017-08-19T13:17:40.847Z,53.7
2017-08-19T13:18:43.705Z,53.8
2017-08-19T13:19:47.247Z,54
2017-08-19T13:20:50.138Z,54
2017-08-19T13:21:52.668Z,54.3
2017-08-19T13:22:55.873Z,54.7
2017-08-19T13:23:59.438Z,54.8
2017-08-19T13:25:02.999Z,54.8
2017-08-19T13:26:05.523Z,54.8
2017-08-19T13:27:08.041Z,55.3
2017-08-19T13:28:10.908Z,55.2
2017-08-19T13:29:13.430Z,55.1
2017-08-19T13:30:15.947Z,55.1
2017-08-19T13:31:18.824Z,55
2017-08-19T13:32:21.676Z,55
2017-08-19T13:33:24.183Z,55.1
2017-08-19T13:34:27.051Z,55.2
2017-08-19T13:35:30.601Z,55.4
2017-08-19T13:36:33.109Z,55.6
2017-08-19T13:37:35.621Z,55.5
2017-08-19T13:38:38.534Z,55.3
2017-08-19T13:39:43.816Z,55.1
2017-08-19T13:40:46.928Z,55.1
2017-08-19T13:41:49.459Z,55.1
2017-08-19T13:42:53.001Z,55.1
2017-08-19T13:43:56.988Z,55.1
2017-08-19T13:44:59.501Z,55.1
2017-08-19T13:46:02.418Z,55.1
2017-08-19T13:47:05.285Z,55.1
2017-08-19T13:48:08.132Z,55.1
2017-08-19T13:49:10.984Z,55.2
2017-08-19T13:50:13.856Z,55.3
2017-08-19T13:51:17.053Z,55.4
2017-08-19T13:52:19.926Z,55.5
2017-08-19T13:53:23.790Z,54.8
2017-08-19T13:54:26.292Z,54.5
2017-08-19T13:55:28.829Z,54.3
2017-08-19T13:56:31.362Z,54.2
2017-08-19T13:57:33.879Z,54.1
2017-08-19T13:58:36.735Z,54.3
2017-08-19T13:59:39.263Z,54.4
2017-08-19T14:00:41.787Z,54.5
2017-08-19T14:01:44.297Z,54.7